createdAt,value
2019-03-26T00:00:59.633Z,18.37
2019-03-26T00:03:26.926Z,18.15
2019-03-26T00:05:54.264Z,22.75
2019-03-26T00:08:21.660Z,22.40
2019-03-26T00:10:49.058Z,23.50
2019-03-26T00:13:16.418Z,22.62
2019-03-26T00:15:43.671Z,22.32
2019-03-26T00:18:11.019Z,23.50
2019-03-26T00:20:38.326Z,23.53
2019-03-26T00:23:05.681Z,23.02
2019-03-26T00:25:33.014Z,22.07
2019-03-26T00:28:00.403Z,19.07
2019-03-26T00:30:27.742Z,20.32
2019-03-26T00:32:55.056Z,22.67
2019-03-26T00:35:22.396Z,20.82
2019-03-26T00:37:49.747Z,23.22
2019-03-26T00:40:17.740Z,28.55
2019-03-26T00:42:48.279Z,22.30
2019-03-26T00:45:15.628Z,26.85
2019-03-26T00:47:42.875Z,25.23
2019-03-26T00:50:10.216Z,21.75
2019-03-26T00:52:39.244Z,27.35
2019-03-26T00:55:06.781Z,21.77
2019-03-26T00:57:34.031Z,20.85
2019-03-26T01:00:01.805Z,28.07
2019-03-26T01:02:29.058Z,26.35
2019-03-26T01:04:56.454Z,25.75
2019-03-26T01:07:23.819Z,29.18
2019-03-26T01:09:51.132Z,23.05
2019-03-26T01:12:18.498Z,27.93
2019-03-26T01:14:45.814Z,26.33
2019-03-26T01:17:13.073Z,30.70
2019-03-26T01:19:40.357Z,24.25
2019-03-26T01:22:07.627Z,23.60
2019-03-26T01:24:34.915Z,27.15
2019-03-26T01:27:02.258Z,21.82
2019-03-26T01:29:30.481Z,25.57
2019-03-26T01:31:57.855Z,24.45
2019-03-26T01:34:25.290Z,21.15
2019-03-26T01:36:52.597Z,23.25
2019-03-26T01:39:19.863Z,25.77
2019-03-26T01:41:47.121Z,24.35
2019-03-26T01:44:14.325Z,22.42
2019-03-26T01:46:41.540Z,26.60
2019-03-26T01:49:09.518Z,22.27
2019-03-26T01:51:36.990Z,20.88
2019-03-26T01:54:04.371Z,23.90
2019-03-26T01:56:31.599Z,19.80
2019-03-26T01:58:58.966Z,23.22
2019-03-26T02:01:26.288Z,23.07
2019-03-26T02:03:53.645Z,21.68
2019-03-26T02:06:20.877Z,23.35
2019-03-26T02:08:48.325Z,25.27
2019-03-26T02:11:15.711Z,24.32
2019-03-26T02:13:43.082Z,25.60
2019-03-26T02:16:10.351Z,24.15
2019-03-26T02:18:37.756Z,26.82
2019-03-26T02:21:05.130Z,25.82
2019-03-26T02:23:32.902Z,24.47
2019-03-26T02:26:00.154Z,25.68
2019-03-26T02:28:27.829Z,22.22
2019-03-26T02:30:55.172Z,20.60
2019-03-26T02:33:22.426Z,26.37
2019-03-26T02:35:49.678Z,24.52
2019-03-26T02:38:17.026Z,21.50
2019-03-26T02:40:44.328Z,22.90
2019-03-26T02:43:12.902Z,22.52
2019-03-26T02:45:40.423Z,27.93
2019-03-26T02:48:07.688Z,20.82
2019-03-26T02:50:35.620Z,23.40
2019-03-26T02:53:02.941Z,23.20
2019-03-26T02:55:30.195Z,18.95
2019-03-26T02:57:57.456Z,25.55
2019-03-26T03:00:24.904Z,21.70
2019-03-26T03:02:52.394Z,23.73
2019-03-26T03:05:34.402Z,23.32
2019-03-26T03:07:48.854Z,21.12
2019-03-26T03:10:16.210Z,19.50
2019-03-26T03:12:43.708Z,26.85
2019-03-26T03:15:11.119Z,21.57
2019-03-26T03:17:38.412Z,21.52
2019-03-26T03:20:05.895Z,18.85
2019-03-26T03:22:33.411Z,21.57
2019-03-26T03:25:00.725Z,21.97
2019-03-26T03:27:28.767Z,22.35
2019-03-26T03:29:56.178Z,21.15
2019-03-26T03:32:24.003Z,18.70
2019-03-26T03:34:51.367Z,19.50
2019-03-26T03:37:18.647Z,20.05
2019-03-26T03:39:45.872Z,22.82
2019-03-26T03:42:13.088Z,22.35
2019-03-26T03:44:40.640Z,19.73
2019-03-26T03:47:09.636Z,18.70
2019-03-26T03:49:37.006Z,21.62
2019-03-26T03:52:04.273Z,18.67
2019-03-26T03:54:32.003Z,21.10
2019-03-26T03:56:59.429Z,23.67
2019-03-26T03:59:27.438Z,19.90
2019-03-26T04:01:54.717Z,23.55
2019-03-26T04:04:22.107Z,20.33
2019-03-26T04:06:49.455Z,18.95
2019-03-26T04:09:16.704Z,18.90
2019-03-26T04:11:44.139Z,19.35
2019-03-26T04:14:11.441Z,23.18
2019-03-26T04:16:38.728Z,21.55
2019-03-26T04:19:05.953Z,20.45
2019-03-26T04:21:33.322Z,22.47
2019-03-26T04:24:00.673Z,20.65
2019-03-26T04:26:28.034Z,20.40
2019-03-26T04:28:55.355Z,22.75
2019-03-26T04:31:23.822Z,19.67
2019-03-26T04:33:51.074Z,21.05
2019-03-26T04:36:25.509Z,18.62
2019-03-26T04:38:47.424Z,20.17
2019-03-26T04:41:14.727Z,24.92
2019-03-26T04:43:42.037Z,20.65
2019-03-26T04:46:09.348Z,22.07
2019-03-26T04:48:36.637Z,22.00
2019-03-26T04:51:03.858Z,18.15
2019-03-26T04:53:34.050Z,18.12
2019-03-26T04:56:00.188Z,21.77
2019-03-26T04:58:27.470Z,23.12
2019-03-26T05:00:54.738Z,17.57
2019-03-26T05:03:21.997Z,21.62
2019-03-26T05:05:49.335Z,22.73
2019-03-26T05:08:16.642Z,21.20
2019-03-26T05:10:44.066Z,19.45
2019-03-26T05:13:11.436Z,20.65
2019-03-26T05:15:38.735Z,18.60
2019-03-26T05:18:06.109Z,17.20
2019-03-26T05:20:33.334Z,27.73
2019-03-26T05:23:00.568Z,23.73
2019-03-26T05:25:27.955Z,19.75
2019-03-26T05:27:55.357Z,23.95
2019-03-26T05:30:25.035Z,25.43
2019-03-26T05:32:52.294Z,20.60
2019-03-26T05:35:19.533Z,20.35
2019-03-26T05:37:46.797Z,28.00
2019-03-26T05:40:14.083Z,24.90
2019-03-26T05:42:41.446Z,29.95
2019-03-26T05:45:08.709Z,24.10
2019-03-26T05:47:35.980Z,25.03
2019-03-26T05:50:04.502Z,31.02
2019-03-26T05:52:31.715Z,23.77
2019-03-26T05:54:59.010Z,31.20
2019-03-26T05:57:26.225Z,28.07
2019-03-26T05:59:53.533Z,26.20
2019-03-26T06:02:20.931Z,34.03
2019-03-26T06:04:48.236Z,27.95
2019-03-26T06:07:15.483Z,28.73
2019-03-26T06:09:42.764Z,28.95
2019-03-26T06:12:09.999Z,29.03
2019-03-26T06:14:37.318Z,33.20
2019-03-26T06:17:04.566Z,32.00
2019-03-26T06:19:31.846Z,26.77
2019-03-26T06:21:59.246Z,31.73
2019-03-26T06:24:27.307Z,27.32
2019-03-26T06:26:54.527Z,24.83
2019-03-26T06:29:21.767Z,31.40
2019-03-26T06:31:49.116Z,25.68
2019-03-26T06:34:16.472Z,30.32
2019-03-26T06:36:43.787Z,27.50
2019-03-26T06:39:11.173Z,25.77
2019-03-26T06:41:38.462Z,27.73
2019-03-26T06:44:05.988Z,32.98
2019-03-26T06:46:33.257Z,24.40
2019-03-26T06:49:00.513Z,24.75
2019-03-26T06:51:28.321Z,28.83
2019-03-26T06:53:55.576Z,28.87
2019-03-26T06:56:22.899Z,23.22
2019-03-26T06:58:50.368Z,23.47
2019-03-26T07:01:17.585Z,25.48
2019-03-26T07:03:44.851Z,27.50
2019-03-26T07:06:17.279Z,27.70
2019-03-26T07:08:44.632Z,27.40
2019-03-26T07:11:11.994Z,23.75
2019-03-26T07:13:39.360Z,25.37
2019-03-26T07:16:06.715Z,23.75
2019-03-26T07:18:33.907Z,24.67
2019-03-26T07:21:01.262Z,22.50
2019-03-26T07:23:29.558Z,20.35
2019-03-26T07:25:56.846Z,23.95
2019-03-26T07:28:24.159Z,23.95
2019-03-26T07:30:51.575Z,24.25
2019-03-26T07:33:18.980Z,23.50
2019-03-26T07:35:46.309Z,22.30
2019-03-26T07:38:13.513Z,24.70
2019-03-26T07:40:40.731Z,24.30
2019-03-26T07:43:08.130Z,18.98
2019-03-26T07:45:35.322Z,20.75
2019-03-26T07:48:02.549Z,17.27
2019-03-26T07:50:29.853Z,23.27
2019-03-26T07:52:57.112Z,23.07
2019-03-26T07:55:24.320Z,21.90
2019-03-26T07:57:51.693Z,24.63
2019-03-26T08:00:21.002Z,21.90
2019-03-26T08:02:48.188Z,24.87
2019-03-26T08:05:15.600Z,22.00
2019-03-26T08:07:42.976Z,21.73
2019-03-26T08:10:11.091Z,23.90
2019-03-26T08:12:39.954Z,18.92
2019-03-26T08:15:08.630Z,18.20
2019-03-26T08:17:35.999Z,18.30
2019-03-26T08:20:04.473Z,23.20
2019-03-26T08:22:31.875Z,20.10
2019-03-26T08:25:00.603Z,20.88
2019-03-26T08:27:27.942Z,17.90
2019-03-26T08:29:55.288Z,18.75
2019-03-26T08:32:22.591Z,21.48
2019-03-26T08:34:50.035Z,19.67
2019-03-26T08:37:17.358Z,19.17
2019-03-26T08:39:44.656Z,21.05
2019-03-26T08:42:11.961Z,17.98
2019-03-26T08:44:39.261Z,20.37
2019-03-26T08:47:07.924Z,19.02
2019-03-26T08:49:35.827Z,19.62
2019-03-26T08:52:03.153Z,19.92
2019-03-26T08:54:30.526Z,20.02
2019-03-26T08:56:57.867Z,19.82
2019-03-26T08:59:25.137Z,20.77
2019-03-26T09:01:52.567Z,19.15
2019-03-26T09:04:20.712Z,18.92
2019-03-26T09:06:47.933Z,19.75
2019-03-26T09:09:15.307Z,16.23
2019-03-26T09:11:44.535Z,19.93
2019-03-26T09:14:11.757Z,23.47
2019-03-26T09:16:40.736Z,20.68
2019-03-26T09:19:08.114Z,17.12
2019-03-26T09:21:35.594Z,20.25
2019-03-26T09:24:02.822Z,14.60
2019-03-26T09:26:30.166Z,14.07
2019-03-26T09:28:57.592Z,18.30
2019-03-26T09:31:27.017Z,18.12
2019-03-26T09:33:54.456Z,17.60
2019-03-26T09:36:21.734Z,15.85
2019-03-26T09:38:49.053Z,13.05
2019-03-26T09:41:16.274Z,14.40
2019-03-26T09:43:43.568Z,15.07
2019-03-26T09:46:10.832Z,16.50
2019-03-26T09:48:38.093Z,14.00
2019-03-26T09:51:06.747Z,15.78
2019-03-26T09:53:33.961Z,16.82
2019-03-26T09:56:01.370Z,18.30
2019-03-26T09:58:28.890Z,16.23
2019-03-26T10:00:56.244Z,18.02
2019-03-26T10:03:23.633Z,19.87
2019-03-26T10:05:50.875Z,17.10
2019-03-26T10:08:19.139Z,18.65
2019-03-26T10:10:47.645Z,17.25
2019-03-26T10:13:14.834Z,20.37
2019-03-26T10:15:42.275Z,16.50
2019-03-26T10:18:09.529Z,19.52
2019-03-26T10:20:36.834Z,19.47
2019-03-26T10:23:04.122Z,19.27
2019-03-26T10:25:31.508Z,20.48
2019-03-26T10:27:58.863Z,19.80
2019-03-26T10:30:32.930Z,22.55
2019-03-26T10:33:00.318Z,20.90
2019-03-26T10:35:28.238Z,18.12
2019-03-26T10:37:55.634Z,19.73
2019-03-26T10:40:30.737Z,19.45
2019-03-26T10:42:58.091Z,15.80
2019-03-26T10:45:27.306Z,20.12
2019-03-26T10:47:54.582Z,19.02
2019-03-26T10:50:21.883Z,17.50
2019-03-26T10:52:49.323Z,19.15
2019-03-26T10:55:16.527Z,19.52
2019-03-26T10:57:43.833Z,18.03
2019-03-26T11:00:11.144Z,17.73
2019-03-26T11:02:38.486Z,20.43
2019-03-26T11:05:06.020Z,16.27
2019-03-26T11:07:33.387Z,24.10
2019-03-26T11:10:00.698Z,17.45
2019-03-26T11:12:27.892Z,21.33
2019-03-26T11:14:55.318Z,22.65
2019-03-26T11:17:22.717Z,19.55
2019-03-26T11:19:50.093Z,21.75
2019-03-26T11:22:17.484Z,21.50
2019-03-26T11:24:44.974Z,16.80
2019-03-26T11:27:12.291Z,18.05
2019-03-26T11:29:39.503Z,19.00
2019-03-26T11:32:06.795Z,23.83
2019-03-26T11:34:34.080Z,18.02
2019-03-26T11:37:01.344Z,19.45
2019-03-26T11:39:32.868Z,19.52
2019-03-26T11:41:57.623Z,18.95
2019-03-26T11:44:24.948Z,19.15
2019-03-26T11:46:52.234Z,20.35
2019-03-26T11:49:19.584Z,18.32
2019-03-26T11:51:46.878Z,18.17
2019-03-26T11:54:14.560Z,19.57
2019-03-26T11:56:41.814Z,20.72
2019-03-26T11:59:09.206Z,18.00
2019-03-26T12:01:36.613Z,19.57
2019-03-26T12:04:03.879Z,20.15
2019-03-26T12:06:31.261Z,19.27
2019-03-26T12:08:58.604Z,21.05
2019-03-26T12:11:26.021Z,20.30
2019-03-26T12:13:53.327Z,20.23
2019-03-26T12:16:20.743Z,19.45
2019-03-26T12:18:48.088Z,21.95
2019-03-26T12:21:15.306Z,24.30
2019-03-26T12:23:42.479Z,17.73
2019-03-26T12:26:09.709Z,19.90
2019-03-26T12:28:37.095Z,23.00
2019-03-26T12:31:04.510Z,19.57
2019-03-26T12:33:31.776Z,22.15
2019-03-26T12:35:59.706Z,23.83
2019-03-26T12:38:27.075Z,19.73
2019-03-26T12:40:54.469Z,18.10
2019-03-26T12:43:21.812Z,18.92
2019-03-26T12:45:49.100Z,20.77
2019-03-26T12:48:16.396Z,21.73
2019-03-26T12:50:43.630Z,19.95
2019-03-26T12:53:12.766Z,22.80
2019-03-26T12:55:39.968Z,19.75
2019-03-26T12:58:07.419Z,19.45
2019-03-26T13:00:34.799Z,21.20
2019-03-26T13:03:02.153Z,20.85
2019-03-26T13:05:29.515Z,20.05
2019-03-26T13:07:56.770Z,18.47
2019-03-26T13:10:24.117Z,19.80
2019-03-26T13:12:53.280Z,18.00
2019-03-26T13:15:20.581Z,23.35
2019-03-26T13:17:48.048Z,21.20
2019-03-26T13:20:15.390Z,17.82
2019-03-26T13:22:42.639Z,17.87
2019-03-26T13:25:10.213Z,20.90
2019-03-26T13:27:37.461Z,20.62
2019-03-26T13:30:05.344Z,18.45
2019-03-26T13:32:32.796Z,21.87
2019-03-26T13:34:59.999Z,21.75
2019-03-26T13:37:27.222Z,18.67
2019-03-26T13:39:54.935Z,19.90
2019-03-26T13:42:22.292Z,19.17
2019-03-26T13:44:49.749Z,20.10
2019-03-26T13:47:17.124Z,24.18
2019-03-26T13:49:44.503Z,20.65
2019-03-26T13:52:11.786Z,19.35
2019-03-26T13:54:42.002Z,18.37
2019-03-26T13:57:10.838Z,21.12
2019-03-26T13:59:38.054Z,21.75
2019-03-26T14:02:05.505Z,23.83
2019-03-26T14:04:32.815Z,22.37
2019-03-26T14:07:00.194Z,19.42
2019-03-26T14:09:28.010Z,19.95
2019-03-26T14:11:57.733Z,22.02
2019-03-26T14:14:24.174Z,20.12
2019-03-26T14:16:51.430Z,19.27
2019-03-26T14:19:18.718Z,22.07
2019-03-26T14:21:46.390Z,19.65
2019-03-26T14:24:15.328Z,24.23
2019-03-26T14:26:42.536Z,24.80
2019-03-26T14:29:12.213Z,17.82
2019-03-26T14:31:41.211Z,23.55
2019-03-26T14:34:08.440Z,23.20
2019-03-26T14:36:35.656Z,20.77
2019-03-26T14:39:03.200Z,19.17
2019-03-26T14:41:30.784Z,22.52
2019-03-26T14:43:58.118Z,24.53
2019-03-26T14:46:25.845Z,21.10
2019-03-26T14:48:53.046Z,24.45
2019-03-26T14:51:22.865Z,22.05
2019-03-26T14:53:49.208Z,22.43
2019-03-26T14:56:16.475Z,24.20
2019-03-26T14:58:43.876Z,25.65
2019-03-26T15:01:11.210Z,22.17
2019-03-26T15:03:38.447Z,24.40
2019-03-26T15:06:05.884Z,26.62
2019-03-26T15:08:34.284Z,26.90
2019-03-26T15:11:07.933Z,22.22
2019-03-26T15:13:30.711Z,24.95
2019-03-26T15:15:58.096Z,23.22
2019-03-26T15:18:27.106Z,24.73
2019-03-26T15:20:54.389Z,24.60
2019-03-26T15:23:21.663Z,25.32
2019-03-26T15:25:49.102Z,29.72
2019-03-26T15:28:16.514Z,26.07
2019-03-26T15:30:43.827Z,26.60
2019-03-26T15:33:11.062Z,23.85
2019-03-26T15:35:38.501Z,28.42
2019-03-26T15:38:05.836Z,26.97
2019-03-26T15:40:33.134Z,22.98
2019-03-26T15:43:00.624Z,25.07
2019-03-26T15:45:28.600Z,30.35
2019-03-26T15:47:55.804Z,25.50
2019-03-26T15:50:36.754Z,28.75
2019-03-26T15:53:04.034Z,28.20
2019-03-26T15:55:31.511Z,23.60
2019-03-26T15:58:00.002Z,24.92
2019-03-26T16:00:29.192Z,29.50
2019-03-26T16:02:56.524Z,29.93
2019-03-26T16:05:23.915Z,21.90
2019-03-26T16:07:51.201Z,23.12
2019-03-26T16:10:18.519Z,24.37
2019-03-26T16:12:45.980Z,24.27
2019-03-26T16:15:13.373Z,26.97
2019-03-26T16:17:43.182Z,23.10
2019-03-26T16:20:10.502Z,29.77
2019-03-26T16:22:38.321Z,26.48
2019-03-26T16:25:06.381Z,30.20
2019-03-26T16:27:35.473Z,29.35
2019-03-26T16:30:03.643Z,25.35
2019-03-26T16:32:32.037Z,29.42
2019-03-26T16:34:59.456Z,28.40
2019-03-26T16:37:27.621Z,29.23
2019-03-26T16:39:54.916Z,27.02
2019-03-26T16:42:22.319Z,25.35
2019-03-26T16:44:49.704Z,23.60
2019-03-26T16:47:16.947Z,29.32
2019-03-26T16:49:44.517Z,26.02
2019-03-26T16:52:11.807Z,30.50
2019-03-26T16:54:39.738Z,23.47
2019-03-26T16:57:07.010Z,23.70
2019-03-26T16:59:34.408Z,29.98
2019-03-26T17:02:01.733Z,32.38
2019-03-26T17:04:29.154Z,27.93
2019-03-26T17:06:56.400Z,30.37
2019-03-26T17:09:23.784Z,26.55
2019-03-26T17:12:02.434Z,26.30
2019-03-26T17:14:20.042Z,29.80
2019-03-26T17:16:47.323Z,26.20
2019-03-26T17:19:14.656Z,27.07
2019-03-26T17:21:41.997Z,25.15
2019-03-26T17:24:10.106Z,28.27
2019-03-26T17:26:37.541Z,28.53
2019-03-26T17:29:04.939Z,31.55
2019-03-26T17:31:32.289Z,30.00
2019-03-26T17:33:59.494Z,30.90
2019-03-26T17:36:26.761Z,31.30
2019-03-26T17:38:55.786Z,31.37
2019-03-26T17:41:23.061Z,29.80
2019-03-26T17:43:50.312Z,33.17
2019-03-26T17:46:17.767Z,30.20
2019-03-26T17:48:44.996Z,28.42
2019-03-26T17:51:14.793Z,31.20
2019-03-26T17:53:42.049Z,34.75
2019-03-26T17:56:09.353Z,25.40
2019-03-26T17:58:36.977Z,31.27
2019-03-26T18:01:04.256Z,29.48
2019-03-26T18:03:31.585Z,35.05
2019-03-26T18:05:59.419Z,33.60
2019-03-26T18:08:26.707Z,28.87
2019-03-26T18:10:54.572Z,28.67
2019-03-26T18:13:21.897Z,29.63
2019-03-26T18:15:49.367Z,29.48
2019-03-26T18:18:16.645Z,31.35
2019-03-26T18:20:43.892Z,31.47
2019-03-26T18:23:12.279Z,29.30
2019-03-26T18:25:39.704Z,24.63
2019-03-26T18:28:07.054Z,29.72
2019-03-26T18:30:34.445Z,27.15
2019-03-26T18:33:01.668Z,29.15
2019-03-26T18:35:28.974Z,32.73
2019-03-26T18:37:59.156Z,28.12
2019-03-26T18:40:26.411Z,26.05
2019-03-26T18:42:53.651Z,31.50
2019-03-26T18:45:20.906Z,23.67
2019-03-26T18:47:48.334Z,27.95
2019-03-26T18:50:15.604Z,28.97
2019-03-26T18:52:43.319Z,26.33
2019-03-26T18:55:10.628Z,30.23
2019-03-26T18:57:37.920Z,24.30
2019-03-26T19:00:09.637Z,24.90
2019-03-26T19:02:42.794Z,27.85
2019-03-26T19:05:33.954Z,28.85
2019-03-26T19:08:01.329Z,27.60
2019-03-26T19:13:26.221Z,23.65
2019-03-26T19:15:55.761Z,30.15
2019-03-26T19:18:26.669Z,30.05
2019-03-26T19:21:02.071Z,24.80
2019-03-26T19:23:24.639Z,25.05
2019-03-26T19:25:53.030Z,27.82
2019-03-26T19:28:20.282Z,25.52
2019-03-26T19:30:49.173Z,24.15
2019-03-26T19:36:08.031Z,25.62
2019-03-26T19:38:35.267Z,24.00
2019-03-26T19:41:02.752Z,26.60
2019-03-26T19:43:31.588Z,23.37
2019-03-26T19:45:58.855Z,23.30
2019-03-26T19:48:26.104Z,24.98
2019-03-26T19:50:53.552Z,22.20
2019-03-26T19:53:22.583Z,25.20
2019-03-26T19:55:50.102Z,24.18
2019-03-26T19:58:18.481Z,24.27
2019-03-26T20:00:45.852Z,23.75
2019-03-26T20:03:13.804Z,21.93
2019-03-26T20:05:41.184Z,25.52
2019-03-26T20:08:08.515Z,22.63
2019-03-26T20:10:35.881Z,25.15
2019-03-26T20:13:03.240Z,30.85
2019-03-26T20:15:30.568Z,22.20
2019-03-26T20:17:57.818Z,25.00
2019-03-26T20:20:25.195Z,27.00
2019-03-26T20:22:52.530Z,22.87
2019-03-26T20:25:19.922Z,28.10
2019-03-26T20:27:47.943Z,20.37
2019-03-26T20:30:15.316Z,23.47
2019-03-26T20:32:42.639Z,26.77
2019-03-26T20:35:09.899Z,23.80
2019-03-26T20:37:37.282Z,26.17
2019-03-26T20:40:06.193Z,24.55
2019-03-26T20:42:33.598Z,23.47
2019-03-26T20:45:00.930Z,23.90
2019-03-26T20:47:28.125Z,20.77
2019-03-26T20:49:55.685Z,23.75
2019-03-26T20:52:22.940Z,21.57
2019-03-26T20:54:51.889Z,21.82
2019-03-26T20:57:19.222Z,23.40
2019-03-26T20:59:50.766Z,20.50
2019-03-26T21:02:18.237Z,20.68
2019-03-26T21:04:45.495Z,21.90
2019-03-26T21:07:12.876Z,23.00
2019-03-26T21:09:40.232Z,21.60
2019-03-26T21:12:08.570Z,20.75
2019-03-26T21:14:35.926Z,22.58
2019-03-26T21:17:03.147Z,23.92
2019-03-26T21:19:30.336Z,23.92
2019-03-26T21:21:58.957Z,21.73
2019-03-26T21:24:26.256Z,17.73
2019-03-26T21:26:53.503Z,24.95
2019-03-26T21:29:23.295Z,23.20
2019-03-26T21:31:59.866Z,26.27
2019-03-26T21:34:30.745Z,26.97
2019-03-26T21:36:57.186Z,23.83
2019-03-26T21:39:28.576Z,22.90
2019-03-26T21:41:57.598Z,22.25
2019-03-26T21:44:24.799Z,23.22
2019-03-26T21:46:54.782Z,20.75
2019-03-26T21:49:22.091Z,21.60
2019-03-26T21:51:49.368Z,21.95
2019-03-26T21:54:16.586Z,25.85
2019-03-26T21:56:44.007Z,23.90
2019-03-26T21:59:11.269Z,24.37
2019-03-26T22:01:38.497Z,21.90
2019-03-26T22:04:06.362Z,24.02
2019-03-26T22:06:33.754Z,23.32
2019-03-26T22:09:01.052Z,20.77
2019-03-26T22:11:28.423Z,24.07
2019-03-26T22:13:55.680Z,23.70
2019-03-26T22:16:22.956Z,21.70
2019-03-26T22:18:50.273Z,20.23
2019-03-26T22:21:17.683Z,25.92
2019-03-26T22:23:44.955Z,25.65
2019-03-26T22:26:12.192Z,20.08
2019-03-26T22:28:39.425Z,19.77
2019-03-26T22:31:06.717Z,21.73
2019-03-26T22:33:33.939Z,27.67
2019-03-26T22:36:01.277Z,23.62
2019-03-26T22:38:29.159Z,23.02
2019-03-26T22:40:56.507Z,20.48
2019-03-26T22:43:23.835Z,21.55
2019-03-26T22:45:51.069Z,19.50
2019-03-26T22:48:18.424Z,21.30
2019-03-26T22:50:45.638Z,20.15
2019-03-26T22:53:12.986Z,22.87
2019-03-26T22:55:40.441Z,20.87
2019-03-26T22:58:07.743Z,22.50
2019-03-26T23:00:35.770Z,18.60
2019-03-26T23:03:03.383Z,21.25
2019-03-26T23:05:30.580Z,20.50
2019-03-26T23:07:57.840Z,22.07
2019-03-26T23:10:25.222Z,20.87
2019-03-26T23:12:52.566Z,21.65
2019-03-26T23:15:21.508Z,25.23
2019-03-26T23:17:48.819Z,21.52
2019-03-26T23:20:16.035Z,22.60
2019-03-26T23:22:43.663Z,24.45
2019-03-26T23:25:12.618Z,22.95
2019-03-26T23:27:40.957Z,20.68
2019-03-26T23:30:08.585Z,25.52
2019-03-26T23:32:35.847Z,23.10
2019-03-26T23:35:03.127Z,19.98
2019-03-26T23:37:30.398Z,24.07
2019-03-26T23:39:57.716Z,26.50
2019-03-26T23:42:25.137Z,21.80
2019-03-26T23:44:58.253Z,23.27
2019-03-26T23:47:21.491Z,27.60
2019-03-26T23:49:48.810Z,22.93
2019-03-26T23:52:16.040Z,27.33
2019-03-26T23:54:43.251Z,19.40
2019-03-26T23:57:11.089Z,21.77
2019-03-26T23:59:38.417Z,21.48
